Time;durP1;ratioP1;P1;durP2;ratioP2;P2;SDS_P1;SDS_P2;PMS_P1;PMS_P2;Temp;Humidity;BMP_temperature;BMP_pressure;BME280_temperature;BME280_humidity;BME280_pressure;Samples;Min_cycle;Max_cycle;Signal;HPM_P1;HPM_P2
2021/08/05 00:01:26;;;;;;;;;;;16.80;99.90;;;16.54;100.00;100911.88;4119320;28;20034;-75
2021/08/05 00:03:27;;;;;;;10.98;5.78;;;16.80;99.90;;;16.44;100.00;100912.16;4119548;28;19917;-75
2021/08/05 00:05:28;;;;;;;11.57;5.45;;;16.70;99.90;;;16.46;100.00;100904.81;4120209;28;20031;-75
2021/08/05 00:07:29;;;;;;;11.77;6.10;;;16.70;99.90;;;16.29;100.00;100906.06;4119086;28;20065;-75
2021/08/05 00:09:30;;;;;;;7.25;5.53;;;16.60;99.90;;;16.29;100.00;100914.06;4151440;28;20029;-76
2021/08/05 00:11:31;;;;;;;9.73;5.50;;;16.60;99.90;;;16.33;100.00;100922.50;4135275;28;20038;-75
2021/08/05 00:13:32;;;;;;;11.05;5.32;;;16.60;99.90;;;16.17;100.00;100915.56;4118981;28;20023;-75
2021/08/05 00:15:33;;;;;;;7.63;5.53;;;16.60;99.90;;;16.33;100.00;100919.84;4103084;28;20073;-75
2021/08/05 00:17:34;;;;;;;9.20;5.35;;;16.50;99.90;;;16.28;100.00;100914.22;4118655;28;20082;-75
2021/08/05 00:19:35;;;;;;;8.73;5.82;;;16.60;99.90;;;16.25;100.00;100906.63;4118909;28;20086;-75
2021/08/05 00:21:36;;;;;;;8.50;5.10;;;16.50;99.90;;;16.33;100.00;100907.34;4120053;28;20046;-76
2021/08/05 00:23:37;;;;;;;12.13;6.43;;;16.50;99.90;;;16.29;100.00;100900.75;4118827;28;20490;-75
2021/08/05 00:25:38;;;;;;;7.38;5.53;;;16.50;99.90;;;16.32;100.00;100892.38;4118992;28;20046;-75
2021/08/05 00:27:39;;;;;;;11.43;5.97;;;16.60;99.90;;;16.17;100.00;100888.94;4118945;28;20038;-75
2021/08/05 00:29:40;;;;;;;7.30;5.10;;;16.50;99.90;;;16.08;100.00;100886.59;4135032;28;20033;-75
2021/08/05 00:31:41;;;;;;;8.85;5.45;;;16.50;99.90;;;16.15;100.00;100884.81;4119694;28;20035;-75
2021/08/05 00:33:42;;;;;;;9.68;5.90;;;16.50;99.90;;;16.09;100.00;100883.75;4118841;28;20545;-75
2021/08/05 00:35:42;;;;;;;8.18;5.60;;;16.50;99.90;;;16.10;100.00;100881.91;4120052;28;20033;-76
2021/08/05 00:37:44;;;;;;;10.80;6.03;;;16.40;99.90;;;16.02;100.00;100893.47;4118847;28;20105;-75
2021/08/05 00:39:44;;;;;;;7.50;5.45;;;16.40;99.90;;;15.96;100.00;100888.91;4134592;28;20062;-75
2021/08/05 00:41:45;;;;;;;11.05;5.93;;;16.30;99.90;;;15.95;100.00;100887.25;4118662;28;20053;-75
2021/08/05 00:43:46;;;;;;;7.72;5.80;;;16.30;99.90;;;15.82;100.00;100873.81;4134853;28;20034;-75
2021/08/05 00:45:47;;;;;;;6.93;5.28;;;16.20;99.90;;;15.79;100.00;100874.19;4119931;28;20046;-75
2021/08/05 00:47:48;;;;;;;10.68;6.22;;;16.20;99.90;;;15.83;100.00;100892.22;4118280;28;20082;-75
2021/08/05 00:49:49;;;;;;;8.57;5.85;;;16.20;99.90;;;15.83;100.00;100883.44;4134781;28;20031;-75
2021/08/05 00:51:50;;;;;;;11.10;6.00;;;16.10;99.90;;;15.86;100.00;100886.53;4118503;28;20474;-75
2021/08/05 00:53:51;;;;;;;9.13;6.28;;;16.10;99.90;;;15.75;100.00;100879.03;4134990;28;20086;-75
2021/08/05 00:55:52;;;;;;;9.68;5.82;;;16.00;99.90;;;15.80;100.00;100881.97;4134574;28;20096;-75
2021/08/05 00:57:53;;;;;;;15.40;6.53;;;16.00;99.90;;;15.76;100.00;100883.38;4134601;28;20409;-75
2021/08/05 00:59:54;;;;;;;12.90;6.38;;;16.00;99.90;;;15.75;100.00;100879.03;4119778;28;20066;-75
2021/08/05 01:02:09;;;;;;;12.95;5.93;;;16.00;99.90;;;15.62;100.00;100862.13;4134549;28;20022;-75
2021/08/05 01:04:10;;;;;;;10.40;6.60;;;16.00;99.90;;;15.69;100.00;100865.66;4118606;28;20027;-75
2021/08/05 01:06:52;;;;;;;10.25;6.38;;;15.90;99.90;;;15.76;100.00;100855.94;4118593;28;20422;-75
2021/08/05 01:09:06;;;;;;;10.85;6.13;;;16.00;99.90;;;15.57;100.00;100838.72;4119454;28;20047;-76
2021/08/05 01:11:18;;;;;;;7.85;5.60;;;15.90;99.90;;;15.52;100.00;100848.28;4119073;28;20035;-75
2021/08/05 01:13:53;;;;;;;7.55;5.20;;;15.90;99.90;;;15.54;100.00;100854.22;4149891;28;20030;-76
2021/08/05 01:15:55;;;;;;;9.35;6.05;;;15.90;99.90;;;15.53;100.00;100849.94;4118318;28;20070;-76
2021/08/05 01:18:12;;;;;;;14.00;7.55;;;15.90;99.90;;;15.55;100.00;100846.06;4118261;28;20043;-75
2021/08/05 01:20:18;;;;;;;9.75;5.65;;;15.90;99.90;;;15.57;100.00;100840.56;4118404;28;20379;-75
2021/08/05 01:22:54;;;;;;;9.75;6.13;;;15.90;99.90;;;15.52;100.00;100842.97;4118373;28;20054;-75
2021/08/05 01:25:04;;;;;;;8.10;5.50;;;15.90;99.90;;;15.55;100.00;100845.25;4118412;28;20089;-76
2021/08/05 01:27:05;;;;;;;10.85;5.95;;;15.90;99.90;;;15.62;100.00;100856.78;4118286;28;20046;-75
2021/08/05 01:29:07;;;;;;;10.07;5.70;;;15.90;99.90;;;15.62;100.00;100854.13;4118454;28;20520;-75
2021/08/05 01:31:09;;;;;;;9.57;5.82;;;15.90;99.90;;;15.57;100.00;100853.84;4118365;28;20050;-75
2021/08/05 01:33:12;;;;;;;11.27;6.78;;;15.90;99.90;;;15.64;100.00;100852.09;4118017;28;20027;-75
2021/08/05 01:35:13;;;;;;;10.02;6.28;;;15.90;99.90;;;15.60;100.00;100840.19;4102380;28;20422;-75
2021/08/05 01:37:17;;;;;;;8.95;5.47;;;15.90;99.90;;;15.49;100.00;100834.34;4118469;28;20030;-75
2021/08/05 01:39:18;;;;;;;12.02;5.80;;;15.90;99.90;;;15.53;100.00;100837.44;4118260;28;20074;-75
2021/08/05 01:41:21;;;;;;;6.78;4.88;;;15.90;99.90;;;15.48;100.00;100840.66;4118253;28;20027;-75
2021/08/05 01:43:22;;;;;;;9.63;5.45;;;15.90;99.90;;;15.68;98.45;100846.22;4118221;28;20395;-75
2021/08/05 01:45:23;;;;;;;8.48;5.93;;;15.90;99.90;;;15.63;98.62;100842.47;4118277;28;20115;-75
2021/08/05 01:47:26;;;;;;;6.47;5.07;;;15.90;99.90;;;15.58;98.97;100831.59;4134163;28;20455;-75
2021/08/05 01:49:27;;;;;;;7.10;4.85;;;15.90;99.90;;;15.54;99.72;100843.59;4118187;28;20054;-75
2021/08/05 01:51:30;;;;;;;9.07;6.15;;;15.90;99.90;;;15.46;99.84;100833.84;4118064;28;20034;-75
2021/08/05 01:53:32;;;;;;;8.70;6.15;;;15.80;99.90;;;15.50;100.00;100843.16;4118385;28;20485;-75
2021/08/05 01:55:33;;;;;;;8.93;6.05;;;15.80;99.90;;;15.52;98.62;100837.63;4118187;28;20058;-75
2021/08/05 01:57:34;;;;;;;10.02;5.63;;;15.80;99.90;;;15.46;98.91;100837.34;4118144;28;20034;-75
2021/08/05 01:59:35;;;;;;;14.23;6.57;;;15.80;99.90;;;15.43;98.74;100836.88;4117944;28;20034;-75
2021/08/05 02:01:36;;;;;;;10.50;6.00;;;15.80;99.90;;;15.37;98.47;100819.03;4133890;28;20038;-75
2021/08/05 02:03:38;;;;;;;8.50;5.55;;;15.80;99.90;;;15.52;97.71;100819.03;4134241;28;20057;-75
2021/08/05 02:06:29;;;;;;;9.05;6.18;;;15.80;99.90;;;15.55;97.30;100826.63;4120917;28;20577;-75
2021/08/05 02:08:44;;;;;;;7.38;5.60;;;15.90;99.90;;;15.45;97.36;100825.06;4119149;28;20039;-75
2021/08/05 02:10:45;;;;;;;;;;;15.80;99.90;;;15.22;97.77;100816.38;4121206;28;20430;-75
2021/08/05 02:13:04;;;;;;;8.55;5.13;;;15.80;99.90;;;15.32;96.31;100808.13;4120700;28;19914;-74
2021/08/05 02:15:06;;;;;;;9.77;5.60;;;15.80;99.90;;;15.43;96.48;100824.44;4122183;28;20045;-75
2021/08/05 02:17:08;;;;;;;10.43;5.63;;;15.80;99.90;;;15.63;95.81;100837.16;4104367;29;20066;-75
2021/08/05 02:19:09;;;;;;;11.25;6.20;;;15.80;99.90;;;15.55;95.00;100824.81;4120541;28;20129;-75
2021/08/05 02:21:12;;;;;;;10.23;5.88;;;15.80;99.90;;;15.55;95.03;100824.81;4137079;28;20061;-75
2021/08/05 02:23:15;;;;;;;9.07;5.32;;;15.90;99.90;;;15.52;95.77;100829.66;4152601;28;20041;-75
2021/08/05 02:25:17;;;;;;;6.47;4.90;;;15.90;99.90;;;15.59;96.60;100830.59;4106125;28;20086;-75
2021/08/05 02:27:18;;;;;;;11.13;6.72;;;15.90;99.90;;;15.60;96.57;100833.03;4136663;28;20516;-75
2021/08/05 02:29:19;;;;;;;12.32;7.13;;;15.90;99.90;;;15.71;95.57;100829.09;4136672;28;20030;-75
2021/08/05 02:31:21;;;;;;;9.10;6.90;;;15.90;99.90;;;15.56;96.37;100823.78;4120274;28;20454;-75
2021/08/05 02:33:26;;;;;;;8.35;6.65;;;16.00;99.90;;;15.56;97.06;100820.31;4120740;28;20462;-75
2021/08/05 02:35:28;;;;;;;7.22;5.80;;;15.90;99.90;;;15.49;97.30;100820.22;4120863;28;20113;-75
2021/08/05 02:37:29;;;;;;;8.63;6.38;;;15.90;99.90;;;15.63;97.03;100827.34;4120638;28;20023;-75
2021/08/05 02:39:32;;;;;;;8.85;6.03;;;15.90;99.90;;;15.48;97.19;100806.09;4120285;28;20066;-75
2021/08/05 02:41:33;;;;;;;9.23;5.93;;;15.90;99.90;;;15.41;97.47;100799.03;4120270;28;20031;-75
2021/08/05 02:43:35;;;;;;;8.10;6.57;;;15.90;99.90;;;15.71;96.24;100805.16;4121714;28;20034;-75
2021/08/05 02:45:38;;;;;;;10.45;6.38;;;15.90;99.90;;;15.70;96.01;100785.72;4120462;28;20038;-75
2021/08/05 02:47:39;;;;;;;9.35;6.07;;;15.90;99.90;;;15.68;96.06;100792.22;4121204;28;20027;-75
2021/08/05 02:49:40;;;;;;;9.90;6.72;;;16.00;99.90;;;15.64;96.69;100802.41;4120200;28;20106;-75
2021/08/05 02:51:42;;;;;;;8.80;6.15;;;15.90;99.90;;;15.53;97.58;100794.09;4136341;28;20022;-75
2021/08/05 02:53:44;;;;;;;7.65;5.65;;;15.90;99.90;;;15.61;97.31;100805.44;4136215;28;20026;-75
2021/08/05 02:55:47;;;;;;;6.90;5.82;;;15.90;99.90;;;15.56;97.93;100799.03;4120191;28;20035;-75
2021/08/05 02:57:50;;;;;;;7.85;5.43;;;15.90;99.90;;;15.39;98.29;100783.25;4120045;28;20034;-75
2021/08/05 02:59:52;;;;;;;9.47;6.70;;;15.90;99.90;;;15.52;98.65;100795.09;4104002;28;20546;-75
2021/08/05 03:01:53;;;;;;;9.75;6.47;;;15.90;99.90;;;15.64;97.58;100782.97;4119906;28;20294;-75
2021/08/05 03:03:54;;;;;;;10.68;6.85;;;15.90;99.90;;;15.58;97.35;100778.41;4120094;28;20034;-75
2021/08/05 03:05:56;;;;;;;11.23;6.00;;;15.90;99.90;;;15.56;98.11;100781.22;4136286;28;20414;-75
2021/08/05 03:07:57;;;;;;;9.00;6.47;;;15.90;99.90;;;15.58;98.11;100778.41;4119908;28;20102;-75
2021/08/05 03:09:58;;;;;;;9.20;6.55;;;15.90;99.90;;;15.60;98.19;100777.19;4121488;28;20031;-75
2021/08/05 03:11:59;;;;;;;8.30;6.10;;;15.90;99.90;;;15.45;99.27;100777.19;4103932;28;20034;-75
2021/08/05 03:14:00;;;;;;;9.13;6.35;;;15.80;99.90;;;15.43;99.95;100779.22;4121108;28;20569;-75
2021/08/05 03:16:01;;;;;;;8.40;6.78;;;15.90;99.90;;;15.49;100.00;100786.50;4119678;28;20033;-75
2021/08/05 03:18:02;;;;;;;7.18;6.20;;;15.90;99.90;;;15.51;100.00;100780.97;4119728;28;20121;-75
2021/08/05 03:20:05;;;;;;;9.25;6.35;;;15.90;99.90;;;15.57;100.00;100774.09;4119760;28;20126;-75
2021/08/05 03:22:06;;;;;;;11.00;6.72;;;15.90;99.90;;;15.56;99.43;100767.94;4119689;28;20066;-75
2021/08/05 03:24:07;;;;;;;9.05;6.47;;;15.90;99.90;;;15.65;99.56;100777.44;4119495;28;20038;-75
2021/08/05 03:26:08;;;;;;;9.55;6.85;;;15.90;99.90;;;15.65;100.00;100780.09;4103728;28;20110;-75
2021/08/05 03:28:09;;;;;;;10.85;6.40;;;16.00;99.90;;;15.77;99.19;100769.81;4119603;28;20034;-75
2021/08/05 03:30:11;;;;;;;9.77;6.65;;;15.90;99.90;;;15.68;99.84;100765.63;4119730;28;20038;-75
2021/08/05 03:32:12;;;;;;;8.98;6.15;;;16.00;99.90;;;15.61;100.00;100767.38;4135157;28;20038;-75
2021/08/05 03:34:14;;;;;;;7.88;5.72;;;16.00;99.90;;;15.69;99.49;100757.44;4103543;29;20035;-75
2021/08/05 03:36:15;;;;;;;10.80;5.97;;;16.00;99.90;;;15.76;99.95;100762.84;4119508;28;20031;-75
2021/08/05 03:38:16;;;;;;;9.35;6.00;;;16.00;99.90;;;15.68;99.65;100755.00;4119523;28;20558;-75
2021/08/05 03:40:17;;;;;;;8.23;5.93;;;16.10;99.90;;;15.62;100.00;100763.72;4135246;28;20077;-76
2021/08/05 03:42:18;;;;;;;11.52;5.95;;;16.00;99.90;;;15.52;100.00;100737.44;4135910;28;20054;-75
2021/08/05 03:44:19;;;;;;;8.60;6.55;;;15.90;99.90;;;15.53;100.00;100741.72;4119425;28;20041;-75
2021/08/05 03:46:20;;;;;;;11.27;6.50;;;15.90;99.90;;;15.50;100.00;100736.81;4119109;28;20027;-75
2021/08/05 03:48:21;;;;;;;7.32;5.88;;;16.00;99.90;;;15.55;100.00;100750.34;4120356;28;20029;-75
2021/08/05 03:50:22;;;;;;;7.88;5.50;;;15.90;99.90;;;15.56;100.00;100751.97;4119436;28;20059;-75
2021/08/05 03:52:22;;;;;;;9.77;7.28;;;15.90;99.90;;;15.66;100.00;100733.91;4119421;28;20121;-75
2021/08/05 03:54:23;;;;;;;10.13;6.82;;;15.90;99.90;;;15.66;100.00;100757.00;4119171;28;20019;-75
2021/08/05 03:56:24;;;;;;;8.82;6.45;;;16.00;99.90;;;15.56;100.00;100756.50;4119131;28;20069;-76
2021/08/05 03:58:25;;;;;;;11.35;6.80;;;15.90;99.90;;;15.61;100.00;100754.09;4119336;28;20023;-76
2021/08/05 04:00:26;;;;;;;8.20;6.72;;;16.00;99.90;;;15.61;100.00;100748.78;4110295;28;20058;-76
2021/08/05 04:02:27;;;;;;;10.02;6.53;;;16.00;99.90;;;15.51;100.00;100733.13;4134822;28;20553;-75
2021/08/05 04:04:28;;;;;;;11.55;6.13;;;16.00;99.90;;;15.55;100.00;100730.91;4120141;28;20027;-75
2021/08/05 04:06:29;;;;;;;8.88;6.95;;;16.00;99.90;;;15.76;100.00;100736.25;4103330;29;20573;-75
2021/08/05 04:08:30;;;;;;;7.97;6.32;;;16.00;99.90;;;15.73;100.00;100733.97;4119124;28;20066;-75
2021/08/05 04:10:31;;;;;;;9.98;6.97;;;16.00;99.90;;;15.79;100.00;100738.53;4135170;28;20578;-75
2021/08/05 04:12:32;;;;;;;10.38;6.95;;;16.00;99.90;;;15.77;100.00;100732.59;4120131;28;20103;-75
2021/08/05 04:14:33;;;;;;;9.63;6.72;;;16.00;99.90;;;15.91;100.00;100729.03;4120265;28;20033;-75
2021/08/05 04:16:35;;;;;;;11.88;6.13;;;16.10;99.90;;;15.78;100.00;100734.22;4118678;28;20033;-75
2021/08/05 04:18:36;;;;;;;13.05;7.22;;;16.10;99.90;;;15.72;100.00;100729.66;4118926;28;20038;-75
2021/08/05 04:20:37;;;;;;;7.05;6.28;;;16.10;99.90;;;15.65;100.00;100723.47;4120006;28;20398;-75
2021/08/05 04:22:38;;;;;;;9.43;6.35;;;16.00;99.90;;;15.60;100.00;100728.50;4119033;28;20038;-75
2021/08/05 04:24:39;;;;;;;10.80;7.07;;;16.00;99.90;;;15.62;100.00;100715.88;4134915;28;20026;-75
2021/08/05 04:26:40;;;;;;;8.70;6.05;;;16.00;99.90;;;15.64;100.00;100713.84;4119559;28;20019;-75
2021/08/05 04:28:41;;;;;;;9.57;5.60;;;16.00;99.90;;;15.63;100.00;100723.63;4118854;28;20031;-75
2021/08/05 04:30:42;;;;;;;7.82;5.78;;;16.00;99.90;;;15.54;100.00;100719.44;4120048;28;20030;-75
2021/08/05 04:32:43;;;;;;;7.55;4.90;;;16.00;99.90;;;15.55;100.00;100712.31;4118599;28;20031;-75
2021/08/05 04:34:44;;;;;;;5.50;4.78;;;16.00;99.90;;;15.53;100.00;100715.13;4118799;28;20407;-75
2021/08/05 04:36:45;;;;;;;6.88;4.95;;;16.00;99.90;;;15.47;100.00;100713.25;4134715;28;20031;-75
2021/08/05 04:38:46;;;;;;;6.40;5.07;;;16.00;99.90;;;15.40;100.00;100697.19;4118572;28;20469;-75
2021/08/05 04:40:47;;;;;;;7.85;4.97;;;15.90;99.90;;;15.38;100.00;100703.72;4134637;28;20066;-75
2021/08/05 04:42:48;;;;;;;6.60;5.25;;;15.90;99.90;;;15.27;100.00;100689.06;4134704;28;20142;-75
2021/08/05 04:44:49;;;;;;;7.95;5.05;;;15.80;99.90;;;15.37;100.00;100708.22;4134646;28;20026;-75
2021/08/05 04:46:50;;;;;;;7.50;6.13;;;15.80;99.90;;;15.35;100.00;100701.44;4118402;28;20459;-75
2021/08/05 04:48:51;;;;;;;11.95;6.90;;;15.80;99.90;;;15.55;100.00;100701.66;4119423;28;20491;-75
2021/08/05 04:50:52;;;;;;;9.85;5.72;;;15.90;99.90;;;15.55;100.00;100704.31;4118406;28;20516;-75
2021/08/05 04:52:54;;;;;;;7.30;5.93;;;15.90;99.90;;;15.65;100.00;100699.53;4118554;28;20030;-74
2021/08/05 04:54:54;;;;;;;7.60;5.97;;;15.90;99.90;;;15.62;100.00;100692.72;4134505;28;20041;-75
2021/08/05 04:56:55;;;;;;;8.00;6.35;;;15.90;99.90;;;15.67;100.00;100700.97;4118566;28;20030;-75
2021/08/05 04:58:56;;;;;;;8.20;6.65;;;15.90;99.90;;;15.75;100.00;100689.38;4134482;28;20058;-75
2021/08/05 05:00:57;;;;;;;10.18;6.18;;;16.00;99.90;;;15.74;100.00;100685.09;4102362;29;20031;-75
2021/08/05 05:02:58;;;;;;;8.05;6.57;;;16.00;99.90;;;15.67;100.00;100677.06;4118084;28;20019;-75
2021/08/05 05:04:59;;;;;;;8.10;5.95;;;16.10;99.90;;;15.75;100.00;100676.09;4118459;28;20589;-75
2021/08/05 05:07:00;;;;;;;12.15;6.15;;;16.10;99.90;;;15.83;100.00;100676.78;4119569;28;20027;-75
2021/08/05 05:09:02;;;;;;;8.75;6.03;;;16.10;99.90;;;15.86;100.00;100678.25;4118390;28;20438;-75
2021/08/05 05:11:03;;;;;;;12.73;5.88;;;16.10;99.90;;;15.73;100.00;100675.47;4134270;28;20034;-75
2021/08/05 05:13:04;;;;;;;10.05;6.57;;;16.10;99.90;;;15.72;100.00;100668.47;4134544;28;20569;-75
2021/08/05 05:15:09;;;;;;;8.98;5.43;;;16.10;99.90;;;15.79;100.00;100678.19;4118409;28;20027;-75
2021/08/05 05:17:10;;;;;;;10.10;6.07;;;16.10;99.90;;;15.71;100.00;100661.53;4118177;28;20062;-75
2021/08/05 05:19:11;;;;;;;9.25;5.68;;;16.20;99.90;;;15.84;100.00;100661.63;4119463;28;20034;-75
2021/08/05 05:21:12;;;;;;;6.95;5.90;;;16.20;99.90;;;15.98;100.00;100666.88;4111229;28;20066;-75
2021/08/05 05:23:13;;;;;;;10.25;5.65;;;16.20;99.90;;;15.99;100.00;100670.34;4102446;28;20078;-75
2021/08/05 05:25:14;;;;;;;6.65;5.05;;;16.30;99.90;;;15.92;100.00;100664.16;4131620;28;20030;-75
2021/08/05 05:27:15;;;;;;;8.77;5.65;;;16.30;99.90;;;15.92;100.00;100656.16;4118250;28;20516;-75
2021/08/05 05:29:16;;;;;;;8.60;6.10;;;16.30;99.90;;;15.92;100.00;100664.16;4134699;28;20046;-76
2021/08/05 05:31:17;;;;;;;7.10;5.75;;;16.30;99.90;;;15.97;100.00;100669.75;4142608;28;20031;-75
2021/08/05 05:33:19;;;;;;;9.48;5.82;;;16.30;99.90;;;16.07;100.00;100662.22;4102134;29;20035;-76
2021/08/05 05:35:20;;;;;;;6.75;5.45;;;16.30;99.90;;;16.06;100.00;100660.59;4118234;28;20161;-76
2021/08/05 05:37:22;;;;;;;7.45;4.93;;;16.30;99.90;;;16.07;100.00;100648.91;4118134;28;20070;-76
2021/08/05 05:39:23;;;;;;;9.68;5.45;;;16.40;99.90;;;16.05;100.00;100648.31;4119272;28;20042;-76
2021/08/05 05:41:24;;;;;;;10.57;6.28;;;16.40;99.90;;;15.99;100.00;100649.06;4121276;28;20062;-76
2021/08/05 05:43:25;;;;;;;11.05;5.03;;;16.40;99.90;;;16.07;100.00;100650.78;4121146;28;20089;-76
2021/08/05 05:45:26;;;;;;;6.28;4.57;;;16.40;99.90;;;16.15;100.00;100655.94;4137465;28;20045;-76
2021/08/05 05:47:26;;;;;;;11.65;6.05;;;16.50;99.90;;;16.18;100.00;100652.91;4120651;28;20169;-76
2021/08/05 05:49:27;;;;;;;10.45;6.47;;;16.60;99.90;;;16.18;100.00;100659.06;4126661;28;20442;-75
2021/08/05 05:51:28;;;;;;;9.95;5.90;;;16.60;99.90;;;16.14;100.00;100643.66;4117961;28;20035;-75
2021/08/05 05:53:29;;;;;;;10.73;6.55;;;16.50;99.90;;;16.14;100.00;100638.31;4124382;28;20062;-75
2021/08/05 05:55:30;;;;;;;9.43;6.22;;;16.60;99.90;;;16.20;100.00;100642.88;4121931;28;20062;-75
2021/08/05 05:57:31;;;;;;;9.10;6.10;;;16.60;99.90;;;16.09;100.00;100625.63;4120108;28;20038;-75
2021/08/05 05:59:32;;;;;;;7.43;5.25;;;16.60;99.90;;;16.10;100.00;100637.88;4120342;28;20058;-75
2021/08/05 06:01:35;;;;;;;10.32;5.43;;;16.50;99.90;;;16.13;100.00;100631.38;4120275;28;20038;-75
2021/08/05 06:03:36;;;;;;;6.93;5.03;;;16.60;99.90;;;16.13;100.00;100645.47;4136569;28;20019;-75
2021/08/05 06:05:37;;;;;;;8.13;5.80;;;16.50;99.90;;;16.04;100.00;100628.03;4104617;28;20042;-75
2021/08/05 06:07:50;;;;;;;9.52;5.72;;;16.50;99.90;;;15.98;100.00;100636.78;4121163;28;20034;-75
2021/08/05 06:09:51;;;;;;;12.85;5.72;;;16.40;99.90;;;15.89;100.00;100630.78;4104129;28;20065;-75
2021/08/05 06:11:52;;;;;;;8.68;5.72;;;16.40;99.90;;;16.02;100.00;100635.38;4152682;28;20033;-75
2021/08/05 06:13:54;;;;;;;10.20;5.45;;;16.40;99.90;;;16.19;100.00;100628.75;4136490;28;20035;-75
2021/08/05 06:15:54;;;;;;;11.13;6.18;;;16.50;99.90;;;16.27;100.00;100636.59;4120278;28;20081;-75
2021/08/05 06:17:55;;;;;;;8.13;4.90;;;16.50;99.90;;;16.22;100.00;100639.00;4120043;28;20398;-75
2021/08/05 06:19:56;;;;;;;9.25;6.10;;;16.60;99.90;;;16.27;100.00;100638.44;4120621;28;20035;-75
2021/08/05 06:21:58;;;;;;;6.57;5.15;;;16.70;99.90;;;16.39;100.00;100637.69;4120537;28;20035;-75
2021/08/05 06:23:59;;;;;;;6.03;4.47;;;16.90;99.90;;;16.49;100.00;100631.97;4151413;28;20014;-75
2021/08/05 06:26:00;;;;;;;8.00;4.93;;;17.00;99.90;;;16.72;100.00;100631.72;4104565;28;20041;-75
2021/08/05 06:28:01;;;;;;;5.43;4.72;;;17.10;99.90;;;16.71;100.00;100636.22;4105528;28;20030;-75
2021/08/05 06:30:04;;;;;;;5.97;4.32;;;17.20;99.90;;;16.79;100.00;100633.38;4136468;28;20030;-75
2021/08/05 06:32:06;;;;;;;8.38;3.88;;;17.40;99.90;;;16.89;100.00;100623.19;4133913;28;20062;-75
2021/08/05 06:34:07;;;;;;;6.88;4.30;;;17.50;99.90;;;17.01;100.00;100626.09;4136663;28;20034;-75
2021/08/05 06:36:08;;;;;;;5.50;4.20;;;17.60;99.90;;;17.07;100.00;100620.78;4120019;28;20027;-75
2021/08/05 06:38:09;;;;;;;7.07;4.15;;;17.70;99.90;;;17.16;99.73;100629.44;4103887;28;20023;-75
2021/08/05 06:40:11;;;;;;;9.38;3.60;;;17.80;99.90;;;17.14;99.78;100623.47;4119919;28;20113;-75
2021/08/05 06:42:12;;;;;;;8.45;3.85;;;17.80;99.90;;;17.28;99.09;100625.16;4121381;28;20045;-75
2021/08/05 06:44:13;;;;;;;8.13;4.25;;;17.90;99.90;;;17.23;99.01;100627.59;4121430;28;20098;-75
2021/08/05 06:46:14;;;;;;;7.38;3.80;;;18.00;99.90;;;17.24;99.25;100615.91;4119673;28;20057;-75
2021/08/05 06:48:15;;;;;;;5.80;3.40;;;18.00;99.90;;;17.22;98.78;100609.13;4136087;28;20066;-75
2021/08/05 06:50:18;;;;;;;4.78;3.38;;;18.00;99.90;;;17.13;99.59;100619.16;4120958;28;20438;-75
2021/08/05 06:52:19;;;;;;;8.55;3.85;;;17.90;99.90;;;17.13;99.59;100608.50;4119984;28;20089;-75
2021/08/05 06:54:20;;;;;;;7.30;4.18;;;17.90;99.90;;;17.33;99.21;100609.34;4120031;28;20038;-75
2021/08/05 06:56:21;;;;;;;5.50;3.28;;;17.80;99.90;;;17.24;99.55;100610.56;4120983;28;20027;-75
2021/08/05 06:58:22;;;;;;;5.07;3.25;;;17.80;99.90;;;17.13;100.00;100600.50;4119931;28;20123;-76
2021/08/05 07:00:23;;;;;;;6.43;3.38;;;17.80;99.90;;;17.09;100.00;100601.91;4135996;28;20034;-75
2021/08/05 07:02:24;;;;;;;7.38;3.75;;;17.70;99.90;;;17.26;100.00;100613.03;4120763;28;20027;-75
2021/08/05 07:04:25;;;;;;;4.32;3.58;;;17.70;99.90;;;17.09;100.00;100608.06;4120858;28;20019;-75
2021/08/05 07:06:26;;;;;;;9.65;3.80;;;17.70;99.90;;;17.05;100.00;100609.50;4119683;28;20629;-75
2021/08/05 07:08:27;;;;;;;6.32;4.45;;;17.60;99.90;;;17.14;100.00;100594.16;4121301;28;20038;-75
2021/08/05 07:10:28;;;;;;;6.88;3.17;;;17.70;99.90;;;17.32;100.00;100606.91;4119646;28;20076;-75
2021/08/05 07:12:30;;;;;;;6.15;2.40;;;17.70;99.90;;;17.20;100.00;100604.00;4121010;28;20042;-76
2021/08/05 07:14:31;;;;;;;3.00;2.30;;;17.70;99.90;;;17.23;100.00;100602.78;4119742;28;20026;-75
2021/08/05 07:16:32;;;;;;;4.53;2.30;;;17.70;99.90;;;17.28;100.00;100611.81;4120595;28;20069;-76
2021/08/05 07:18:33;;;;;;;4.40;2.08;;;17.80;99.90;;;17.22;100.00;100598.47;4121183;28;20031;-75
2021/08/05 07:20:33;;;;;;;4.32;2.05;;;17.80;99.90;;;17.17;100.00;100592.94;4135625;28;20077;-75
2021/08/05 07:22:34;;;;;;;4.22;2.30;;;17.80;99.90;;;17.23;100.00;100592.94;4120812;28;20058;-76
2021/08/05 07:24:35;;;;;;;7.93;2.40;;;17.80;99.90;;;17.15;100.00;100585.13;4119781;28;20027;-75
2021/08/05 07:26:36;;;;;;;3.85;2.00;;;17.80;99.90;;;17.29;100.00;100601.97;4120643;28;20041;-75
2021/08/05 07:28:37;;;;;;;6.65;2.88;;;17.80;99.90;;;17.26;100.00;100592.53;4120757;28;20027;-76
2021/08/05 07:30:38;;;;;;;4.03;2.30;;;17.90;99.90;;;17.33;100.00;100595.19;4119435;28;20093;-76
2021/08/05 07:32:39;;;;;;;2.75;2.15;;;17.90;99.90;;;17.42;100.00;100592.13;4119099;28;20098;-75
2021/08/05 07:34:40;;;;;;;5.95;2.30;;;18.00;99.90;;;17.46;100.00;100595.22;4119302;28;20404;-75
2021/08/05 07:36:41;;;;;;;5.72;2.58;;;18.10;99.90;;;17.50;100.00;100597.25;4151374;28;20033;-76
2021/08/05 07:38:42;;;;;;;3.20;1.95;;;18.10;99.90;;;17.43;100.00;100588.47;4120401;28;20505;-76
2021/08/05 07:40:43;;;;;;;7.00;2.05;;;18.20;99.90;;;17.58;100.00;100589.09;4119067;28;20506;-76
2021/08/05 07:42:45;;;;;;;2.65;1.70;;;18.30;99.90;;;17.53;100.00;100575.50;4120550;28;20026;-76
2021/08/05 07:44:47;;;;;;;3.97;2.00;;;18.40;99.90;;;17.61;100.00;100585.22;4120484;28;20033;-76
2021/08/05 07:46:48;;;;;;;2.75;1.90;;;18.40;99.90;;;17.60;100.00;100587.03;4118566;28;20074;-75
2021/08/05 07:48:49;;;;;;;3.35;2.42;;;18.50;99.90;;;17.69;100.00;100583.16;4120549;28;20103;-76
2021/08/05 07:50:50;;;;;;;3.55;1.90;;;18.50;99.90;;;17.78;100.00;100569.59;4119278;28;20106;-76
2021/08/05 07:52:51;;;;;;;4.53;2.30;;;18.60;99.90;;;17.86;98.45;100570.19;4120392;28;20069;-75
2021/08/05 07:54:52;;;;;;;3.67;1.85;;;18.70;99.90;;;17.90;97.54;100566.09;4120271;28;20130;-75
2021/08/05 07:56:53;;;;;;;3.67;2.00;;;18.70;99.90;;;17.87;97.83;100561.16;4118498;28;20062;-76
2021/08/05 07:58:53;;;;;;;6.00;2.33;;;18.70;99.90;;;17.73;97.83;100558.72;4119976;28;20034;-76
2021/08/05 08:00:54;;;;;;;5.07;2.47;;;18.70;99.90;;;17.77;97.72;100562.63;4134733;28;20085;-75
2021/08/05 08:02:55;;;;;;;4.88;2.25;;;18.60;99.90;;;17.71;98.88;100552.78;4118042;28;20059;-76
2021/08/05 08:04:56;;;;;;;5.70;2.50;;;18.60;99.90;;;17.73;99.21;100556.88;4120094;28;20653;-76
2021/08/05 08:06:57;;;;;;;6.68;2.65;;;18.60;99.90;;;17.76;98.24;100555.66;4118595;28;20050;-76
2021/08/05 08:08:58;;;;;;;4.90;2.50;;;18.60;99.90;;;17.80;99.34;100548.88;4118860;28;20027;-76
2021/08/05 08:10:59;;;;;;;4.43;2.53;;;18.60;99.90;;;17.90;97.43;100544.75;4119784;28;20027;-76
2021/08/05 08:13:00;;;;;;;4.20;2.72;;;18.60;99.90;;;17.81;97.93;100548.66;4120282;28;20058;-75
2021/08/05 08:15:01;;;;;;;6.18;2.38;;;18.60;99.90;;;17.73;98.13;100550.72;4120133;28;20035;-76
2021/08/05 08:17:02;;;;;;;6.75;2.90;;;18.60;99.90;;;17.83;97.75;100553.81;4118392;28;20031;-75
2021/08/05 08:19:03;;;;;;;6.38;2.55;;;18.70;99.90;;;17.81;98.43;100561.16;4118792;28;20027;-75
2021/08/05 08:21:04;;;;;;;5.72;2.30;;;18.70;99.90;;;17.78;98.05;100549.06;4134648;28;20034;-75
2021/08/05 08:23:05;;;;;;;5.75;2.17;;;18.70;99.90;;;17.72;98.21;100557.06;4134703;28;20043;-75
2021/08/05 08:25:06;;;;;;;5.57;2.42;;;18.70;99.90;;;17.84;98.03;100548.25;4119837;28;20030;-76